sensor_id;sensor_type;location;lat;lon;timestamp;P1;durP1;ratioP1;P2;durP2;ratioP2
60472;SDS011;46318;52.716;6.444;2023-09-19T00:00:45;6.18;;;2.15;;
60472;SDS011;46318;52.716;6.444;2023-09-19T00:03:14;5.03;;;1.55;;
60472;SDS011;46318;52.716;6.444;2023-09-19T00:05:41;3.10;;;1.60;;
60472;SDS011;46318;52.716;6.444;2023-09-19T00:08:10;5.18;;;1.70;;
60472;SDS011;46318;52.716;6.444;2023-09-19T00:10:38;3.70;;;1.80;;
60472;SDS011;46318;52.716;6.444;2023-09-19T00:13:06;5.30;;;1.90;;
60472;SDS011;46318;52.716;6.444;2023-09-19T00:15:40;6.30;;;1.75;;
60472;SDS011;46318;52.716;6.444;2023-09-19T00:18:08;5.30;;;1.77;;
60472;SDS011;46318;52.716;6.444;2023-09-19T00:20:37;7.38;;;2.33;;
60472;SDS011;46318;52.716;6.444;2023-09-19T00:23:04;7.18;;;2.00;;
60472;SDS011;46318;52.716;6.444;2023-09-19T00:25:34;8.85;;;2.10;;
60472;SDS011;46318;52.716;6.444;2023-09-19T00:28:03;9.60;;;2.40;;
60472;SDS011;46318;52.716;6.444;2023-09-19T00:30:31;6.35;;;1.92;;
60472;SDS011;46318;52.716;6.444;2023-09-19T00:32:58;8.82;;;2.25;;
60472;SDS011;46318;52.716;6.444;2023-09-19T00:35:23;6.85;;;2.40;;
60472;SDS011;46318;52.716;6.444;2023-09-19T00:37:50;7.55;;;2.38;;
60472;SDS011;46318;52.716;6.444;2023-09-19T00:40:17;5.32;;;2.05;;
60472;SDS011;46318;52.716;6.444;2023-09-19T00:42:43;8.68;;;2.10;;
60472;SDS011;46318;52.716;6.444;2023-09-19T00:45:11;9.65;;;2.55;;
60472;SDS011;46318;52.716;6.444;2023-09-19T00:47:43;7.57;;;2.17;;
60472;SDS011;46318;52.716;6.444;2023-09-19T00:50:14;8.05;;;2.20;;
60472;SDS011;46318;52.716;6.444;2023-09-19T00:52:42;10.30;;;2.40;;
60472;SDS011;46318;52.716;6.444;2023-09-19T00:55:09;8.63;;;2.55;;
60472;SDS011;46318;52.716;6.444;2023-09-19T00:57:39;9.25;;;2.60;;
60472;SDS011;46318;52.716;6.444;2023-09-19T01:00:06;7.47;;;2.65;;
60472;SDS011;46318;52.716;6.444;2023-09-19T01:05:03;10.07;;;2.78;;
60472;SDS011;46318;52.716;6.444;2023-09-19T01:07:31;9.65;;;2.97;;
60472;SDS011;46318;52.716;6.444;2023-09-19T01:10:02;9.07;;;2.85;;
60472;SDS011;46318;52.716;6.444;2023-09-19T01:12:37;7.05;;;2.92;;
60472;SDS011;46318;52.716;6.444;2023-09-19T01:15:17;9.43;;;2.70;;
60472;SDS011;46318;52.716;6.444;2023-09-19T01:18:40;5.72;;;2.25;;
60472;SDS011;46318;52.716;6.444;2023-09-19T01:21:18;12.00;;;2.70;;
60472;SDS011;46318;52.716;6.444;2023-09-19T01:30:06;10.88;;;3.22;;
60472;SDS011;46318;52.716;6.444;2023-09-19T01:32:39;8.90;;;2.65;;
60472;SDS011;46318;52.716;6.444;2023-09-19T01:35:06;6.40;;;2.40;;
60472;SDS011;46318;52.716;6.444;2023-09-19T01:37:37;11.45;;;2.70;;
60472;SDS011;46318;52.716;6.444;2023-09-19T01:40:07;6.35;;;2.50;;
60472;SDS011;46318;52.716;6.444;2023-09-19T01:43:08;9.02;;;2.53;;
60472;SDS011;46318;52.716;6.444;2023-09-19T01:52:10;7.15;;;2.33;;
60472;SDS011;46318;52.716;6.444;2023-09-19T01:54:48;9.05;;;3.33;;
60472;SDS011;46318;52.716;6.444;2023-09-19T01:59:59;11.25;;;2.55;;
60472;SDS011;46318;52.716;6.444;2023-09-19T02:02:36;10.07;;;2.78;;
60472;SDS011;46318;52.716;6.444;2023-09-19T02:07:30;7.05;;;2.45;;
60472;SDS011;46318;52.716;6.444;2023-09-19T02:10:00;5.87;;;2.63;;
60472;SDS011;46318;52.716;6.444;2023-09-19T02:12:28;7.00;;;2.80;;
60472;SDS011;46318;52.716;6.444;2023-09-19T02:14:55;13.27;;;3.33;;
60472;SDS011;46318;52.716;6.444;2023-09-19T02:17:22;9.85;;;3.15;;
60472;SDS011;46318;52.716;6.444;2023-09-19T02:19:54;9.93;;;3.00;;
60472;SDS011;46318;52.716;6.444;2023-09-19T02:22:23;8.55;;;2.80;;
60472;SDS011;46318;52.716;6.444;2023-09-19T02:24:50;11.95;;;2.72;;
60472;SDS011;46318;52.716;6.444;2023-09-19T02:27:16;7.22;;;2.55;;
60472;SDS011;46318;52.716;6.444;2023-09-19T02:29:44;8.98;;;3.00;;
60472;SDS011;46318;52.716;6.444;2023-09-19T02:32:11;8.07;;;3.17;;
60472;SDS011;46318;52.716;6.444;2023-09-19T02:34:37;8.93;;;2.53;;
60472;SDS011;46318;52.716;6.444;2023-09-19T02:37:04;10.38;;;3.15;;
60472;SDS011;46318;52.716;6.444;2023-09-19T02:39:31;6.75;;;2.67;;
60472;SDS011;46318;52.716;6.444;2023-09-19T02:41:57;8.95;;;3.10;;
60472;SDS011;46318;52.716;6.444;2023-09-19T02:44:23;6.28;;;2.88;;
60472;SDS011;46318;52.716;6.444;2023-09-19T02:46:49;8.52;;;2.80;;
60472;SDS011;46318;52.716;6.444;2023-09-19T02:49:16;6.72;;;2.60;;
60472;SDS011;46318;52.716;6.444;2023-09-19T02:51:43;9.18;;;2.80;;
60472;SDS011;46318;52.716;6.444;2023-09-19T02:54:09;7.90;;;2.60;;
60472;SDS011;46318;52.716;6.444;2023-09-19T02:56:36;8.30;;;2.63;;
60472;SDS011;46318;52.716;6.444;2023-09-19T02:59:03;8.20;;;2.67;;
60472;SDS011;46318;52.716;6.444;2023-09-19T03:01:29;6.55;;;2.40;;
60472;SDS011;46318;52.716;6.444;2023-09-19T03:03:55;6.38;;;2.72;;
60472;SDS011;46318;52.716;6.444;2023-09-19T03:06:21;9.93;;;2.80;;
60472;SDS011;46318;52.716;6.444;2023-09-19T03:08:49;6.35;;;2.35;;
60472;SDS011;46318;52.716;6.444;2023-09-19T03:11:17;4.13;;;2.15;;
60472;SDS011;46318;52.716;6.444;2023-09-19T03:13:50;7.75;;;2.63;;
60472;SDS011;46318;52.716;6.444;2023-09-19T03:16:18;6.85;;;2.33;;
60472;SDS011;46318;52.716;6.444;2023-09-19T03:18:47;5.70;;;2.60;;
60472;SDS011;46318;52.716;6.444;2023-09-19T03:21:16;8.77;;;3.05;;
60472;SDS011;46318;52.716;6.444;2023-09-19T03:23:43;7.28;;;2.78;;
60472;SDS011;46318;52.716;6.444;2023-09-19T03:26:14;10.98;;;2.60;;
60472;SDS011;46318;52.716;6.444;2023-09-19T03:28:41;6.53;;;2.53;;
60472;SDS011;46318;52.716;6.444;2023-09-19T03:31:08;6.30;;;2.60;;
60472;SDS011;46318;52.716;6.444;2023-09-19T03:33:35;10.32;;;2.67;;
60472;SDS011;46318;52.716;6.444;2023-09-19T03:36:01;9.35;;;2.42;;
60472;SDS011;46318;52.716;6.444;2023-09-19T03:38:31;5.28;;;2.40;;
60472;SDS011;46318;52.716;6.444;2023-09-19T03:40:57;7.70;;;3.00;;
60472;SDS011;46318;52.716;6.444;2023-09-19T03:43:24;9.30;;;3.03;;
60472;SDS011;46318;52.716;6.444;2023-09-19T03:45:50;6.68;;;2.83;;
60472;SDS011;46318;52.716;6.444;2023-09-19T03:48:16;10.05;;;2.55;;
60472;SDS011;46318;52.716;6.444;2023-09-19T03:50:42;8.15;;;2.88;;
60472;SDS011;46318;52.716;6.444;2023-09-19T03:53:09;9.75;;;3.10;;
60472;SDS011;46318;52.716;6.444;2023-09-19T03:55:35;11.13;;;3.58;;
60472;SDS011;46318;52.716;6.444;2023-09-19T03:58:01;10.32;;;2.85;;
60472;SDS011;46318;52.716;6.444;2023-09-19T04:00:29;9.07;;;2.90;;
60472;SDS011;46318;52.716;6.444;2023-09-19T04:02:55;9.18;;;2.92;;
60472;SDS011;46318;52.716;6.444;2023-09-19T04:05:22;7.57;;;2.95;;
60472;SDS011;46318;52.716;6.444;2023-09-19T04:07:48;7.55;;;2.50;;
60472;SDS011;46318;52.716;6.444;2023-09-19T04:10:15;7.30;;;2.83;;
60472;SDS011;46318;52.716;6.444;2023-09-19T04:12:50;4.60;;;2.53;;
60472;SDS011;46318;52.716;6.444;2023-09-19T04:15:20;11.38;;;3.33;;
60472;SDS011;46318;52.716;6.444;2023-09-19T04:17:49;12.48;;;3.33;;
60472;SDS011;46318;52.716;6.444;2023-09-19T04:20:19;12.25;;;3.47;;
60472;SDS011;46318;52.716;6.444;2023-09-19T04:22:45;10.93;;;3.00;;
60472;SDS011;46318;52.716;6.444;2023-09-19T04:25:12;12.70;;;3.63;;
60472;SDS011;46318;52.716;6.444;2023-09-19T04:27:38;10.45;;;3.35;;
60472;SDS011;46318;52.716;6.444;2023-09-19T04:30:04;11.27;;;3.60;;
60472;SDS011;46318;52.716;6.444;2023-09-19T04:32:36;9.80;;;3.47;;
60472;SDS011;46318;52.716;6.444;2023-09-19T04:35:08;12.68;;;3.55;;
60472;SDS011;46318;52.716;6.444;2023-09-19T04:37:41;10.95;;;3.38;;
60472;SDS011;46318;52.716;6.444;2023-09-19T04:40:10;12.15;;;3.60;;
60472;SDS011;46318;52.716;6.444;2023-09-19T04:42:44;9.45;;;3.00;;
60472;SDS011;46318;52.716;6.444;2023-09-19T04:45:11;13.70;;;3.20;;
60472;SDS011;46318;52.716;6.444;2023-09-19T04:47:37;11.05;;;3.80;;
60472;SDS011;46318;52.716;6.444;2023-09-19T04:50:06;9.25;;;2.80;;
60472;SDS011;46318;52.716;6.444;2023-09-19T04:52:38;10.48;;;2.80;;
60472;SDS011;46318;52.716;6.444;2023-09-19T04:55:11;13.57;;;3.40;;
60472;SDS011;46318;52.716;6.444;2023-09-19T04:57:45;11.50;;;3.20;;
60472;SDS011;46318;52.716;6.444;2023-09-19T05:00:16;11.87;;;3.47;;
60472;SDS011;46318;52.716;6.444;2023-09-19T05:02:44;10.27;;;2.97;;
60472;SDS011;46318;52.716;6.444;2023-09-19T05:05:11;9.20;;;3.22;;
60472;SDS011;46318;52.716;6.444;2023-09-19T05:07:40;11.13;;;3.20;;
60472;SDS011;46318;52.716;6.444;2023-09-19T05:10:06;9.98;;;3.17;;
60472;SDS011;46318;52.716;6.444;2023-09-19T05:12:33;10.13;;;3.03;;
60472;SDS011;46318;52.716;6.444;2023-09-19T05:15:06;13.93;;;3.30;;
60472;SDS011;46318;52.716;6.444;2023-09-19T05:17:33;10.07;;;3.13;;
60472;SDS011;46318;52.716;6.444;2023-09-19T05:20:00;12.27;;;3.15;;
60472;SDS011;46318;52.716;6.444;2023-09-19T05:22:43;13.30;;;3.28;;
60472;SDS011;46318;52.716;6.444;2023-09-19T05:25:11;7.65;;;2.67;;
60472;SDS011;46318;52.716;6.444;2023-09-19T05:27:43;9.07;;;2.92;;
60472;SDS011;46318;52.716;6.444;2023-09-19T05:30:09;9.23;;;2.95;;
60472;SDS011;46318;52.716;6.444;2023-09-19T05:32:36;9.10;;;2.80;;
60472;SDS011;46318;52.716;6.444;2023-09-19T05:35:02;10.65;;;2.78;;
60472;SDS011;46318;52.716;6.444;2023-09-19T05:37:28;10.68;;;3.05;;
60472;SDS011;46318;52.716;6.444;2023-09-19T05:39:54;11.93;;;2.95;;
60472;SDS011;46318;52.716;6.444;2023-09-19T05:42:20;11.30;;;2.95;;
60472;SDS011;46318;52.716;6.444;2023-09-19T05:44:46;10.38;;;3.03;;
60472;SDS011;46318;52.716;6.444;2023-09-19T05:47:12;11.75;;;3.13;;
60472;SDS011;46318;52.716;6.444;2023-09-19T05:49:38;9.25;;;3.38;;
60472;SDS011;46318;52.716;6.444;2023-09-19T05:52:07;11.82;;;3.13;;
60472;SDS011;46318;52.716;6.444;2023-09-19T05:54:33;10.52;;;3.20;;
60472;SDS011;46318;52.716;6.444;2023-09-19T05:57:02;12.45;;;3.22;;
60472;SDS011;46318;52.716;6.444;2023-09-19T05:59:31;14.60;;;3.05;;
60472;SDS011;46318;52.716;6.444;2023-09-19T06:01:58;12.25;;;3.05;;
60472;SDS011;46318;52.716;6.444;2023-09-19T06:04:24;9.63;;;2.70;;
60472;SDS011;46318;52.716;6.444;2023-09-19T06:06:50;9.25;;;3.20;;
60472;SDS011;46318;52.716;6.444;2023-09-19T06:09:16;6.80;;;2.55;;
60472;SDS011;46318;52.716;6.444;2023-09-19T06:11:42;9.60;;;3.17;;
60472;SDS011;46318;52.716;6.444;2023-09-19T06:14:08;8.38;;;3.08;;
60472;SDS011;46318;52.716;6.444;2023-09-19T06:16:35;8.80;;;2.85;;
60472;SDS011;46318;52.716;6.444;2023-09-19T06:19:03;11.68;;;3.35;;
60472;SDS011;46318;52.716;6.444;2023-09-19T06:21:31;12.93;;;3.22;;
60472;SDS011;46318;52.716;6.444;2023-09-19T06:23:57;12.35;;;3.15;;
60472;SDS011;46318;52.716;6.444;2023-09-19T06:26:24;7.25;;;2.90;;
60472;SDS011;46318;52.716;6.444;2023-09-19T06:28:52;8.52;;;2.80;;
60472;SDS011;46318;52.716;6.444;2023-09-19T06:31:18;8.65;;;3.20;;
60472;SDS011;46318;52.716;6.444;2023-09-19T06:33:46;12.80;;;3.78;;
60472;SDS011;46318;52.716;6.444;2023-09-19T06:36:12;11.85;;;3.08;;
60472;SDS011;46318;52.716;6.444;2023-09-19T06:38:38;8.85;;;2.70;;
60472;SDS011;46318;52.716;6.444;2023-09-19T06:41:04;12.43;;;3.63;;
60472;SDS011;46318;52.716;6.444;2023-09-19T06:43:33;9.95;;;2.92;;
60472;SDS011;46318;52.716;6.444;2023-09-19T06:46:00;8.23;;;2.72;;
60472;SDS011;46318;52.716;6.444;2023-09-19T06:48:27;11.40;;;3.55;;
60472;SDS011;46318;52.716;6.444;2023-09-19T06:50:55;9.68;;;3.05;;
60472;SDS011;46318;52.716;6.444;2023-09-19T06:53:23;9.93;;;3.13;;
60472;SDS011;46318;52.716;6.444;2023-09-19T06:55:52;8.80;;;2.88;;
60472;SDS011;46318;52.716;6.444;2023-09-19T06:58:18;13.45;;;3.22;;
60472;SDS011;46318;52.716;6.444;2023-09-19T07:00:45;7.63;;;3.10;;
60472;SDS011;46318;52.716;6.444;2023-09-19T07:03:13;11.50;;;3.20;;
60472;SDS011;46318;52.716;6.444;2023-09-19T07:05:40;12.65;;;4.00;;
60472;SDS011;46318;52.716;6.444;2023-09-19T07:08:08;11.18;;;3.38;;
60472;SDS011;46318;52.716;6.444;2023-09-19T07:10:36;9.20;;;2.75;;
60472;SDS011;46318;52.716;6.444;2023-09-19T07:13:05;8.00;;;2.90;;
60472;SDS011;46318;52.716;6.444;2023-09-19T07:15:38;11.02;;;3.35;;
60472;SDS011;46318;52.716;6.444;2023-09-19T07:18:09;7.95;;;2.50;;
60472;SDS011;46318;52.716;6.444;2023-09-19T07:20:51;14.07;;;3.10;;
60472;SDS011;46318;52.716;6.444;2023-09-19T07:23:26;8.80;;;3.13;;
60472;SDS011;46318;52.716;6.444;2023-09-19T07:25:52;9.32;;;2.85;;
60472;SDS011;46318;52.716;6.444;2023-09-19T07:28:23;10.75;;;3.60;;
60472;SDS011;46318;52.716;6.444;2023-09-19T07:30:49;8.55;;;3.00;;
60472;SDS011;46318;52.716;6.444;2023-09-19T07:33:17;10.93;;;3.30;;
60472;SDS011;46318;52.716;6.444;2023-09-19T07:35:47;12.32;;;3.53;;
60472;SDS011;46318;52.716;6.444;2023-09-19T07:38:13;9.93;;;3.75;;
60472;SDS011;46318;52.716;6.444;2023-09-19T07:40:39;10.48;;;2.85;;
60472;SDS011;46318;52.716;6.444;2023-09-19T07:43:05;13.90;;;3.67;;
60472;SDS011;46318;52.716;6.444;2023-09-19T07:45:36;11.10;;;3.30;;
60472;SDS011;46318;52.716;6.444;2023-09-19T07:48:02;12.80;;;3.42;;
60472;SDS011;46318;52.716;6.444;2023-09-19T07:50:38;11.18;;;3.78;;
60472;SDS011;46318;52.716;6.444;2023-09-19T07:53:05;10.93;;;3.25;;
60472;SDS011;46318;52.716;6.444;2023-09-19T07:55:31;9.90;;;3.33;;
60472;SDS011;46318;52.716;6.444;2023-09-19T07:57:59;14.15;;;3.85;;
60472;SDS011;46318;52.716;6.444;2023-09-19T08:00:25;13.30;;;3.97;;
60472;SDS011;46318;52.716;6.444;2023-09-19T08:02:51;8.50;;;2.97;;
60472;SDS011;46318;52.716;6.444;2023-09-19T08:05:17;9.70;;;3.25;;
60472;SDS011;46318;52.716;6.444;2023-09-19T08:07:44;13.57;;;3.45;;
60472;SDS011;46318;52.716;6.444;2023-09-19T08:10:21;9.85;;;3.42;;
60472;SDS011;46318;52.716;6.444;2023-09-19T08:12:47;13.07;;;3.72;;
60472;SDS011;46318;52.716;6.444;2023-09-19T08:15:14;10.00;;;3.05;;
60472;SDS011;46318;52.716;6.444;2023-09-19T08:17:45;11.45;;;3.15;;
60472;SDS011;46318;52.716;6.444;2023-09-19T08:20:12;11.88;;;3.22;;
60472;SDS011;46318;52.716;6.444;2023-09-19T08:22:52;10.10;;;3.03;;
60472;SDS011;46318;52.716;6.444;2023-09-19T08:25:21;12.93;;;3.25;;
60472;SDS011;46318;52.716;6.444;2023-09-19T08:27:50;12.65;;;3.45;;
60472;SDS011;46318;52.716;6.444;2023-09-19T08:30:17;11.25;;;3.38;;
60472;SDS011;46318;52.716;6.444;2023-09-19T08:32:49;12.38;;;3.75;;
60472;SDS011;46318;52.716;6.444;2023-09-19T08:35:15;13.98;;;3.45;;
60472;SDS011;46318;52.716;6.444;2023-09-19T08:37:42;9.63;;;3.08;;
60472;SDS011;46318;52.716;6.444;2023-09-19T08:40:10;14.57;;;3.80;;
60472;SDS011;46318;52.716;6.444;2023-09-19T08:42:54;10.40;;;3.28;;
60472;SDS011;46318;52.716;6.444;2023-09-19T08:45:22;12.65;;;3.70;;
60472;SDS011;46318;52.716;6.444;2023-09-19T08:53:41;11.30;;;3.75;;
60472;SDS011;46318;52.716;6.444;2023-09-19T08:56:31;9.82;;;3.45;;
60472;SDS011;46318;52.716;6.444;2023-09-19T08:59:04;15.52;;;3.85;;
60472;SDS011;46318;52.716;6.444;2023-09-19T09:01:34;12.55;;;3.28;;
60472;SDS011;46318;52.716;6.444;2023-09-19T09:04:01;12.15;;;3.50;;
60472;SDS011;46318;52.716;6.444;2023-09-19T09:06:28;10.85;;;3.10;;
60472;SDS011;46318;52.716;6.444;2023-09-19T09:08:55;10.48;;;3.28;;
60472;SDS011;46318;52.716;6.444;2023-09-19T09:11:21;11.80;;;3.55;;
60472;SDS011;46318;52.716;6.444;2023-09-19T09:13:50;9.90;;;3.22;;
60472;SDS011;46318;52.716;6.444;2023-09-19T09:16:16;8.88;;;3.00;;
60472;SDS011;46318;52.716;6.444;2023-09-19T09:18:45;11.48;;;3.88;;
60472;SDS011;46318;52.716;6.444;2023-09-19T09:21:17;15.48;;;3.33;;
60472;SDS011;46318;52.716;6.444;2023-09-19T09:23:46;12.88;;;3.72;;
60472;SDS011;46318;52.716;6.444;2023-09-19T09:26:14;11.18;;;3.50;;
60472;SDS011;46318;52.716;6.444;2023-09-19T09:28:46;12.50;;;3.50;;
60472;SDS011;46318;52.716;6.444;2023-09-19T09:31:24;13.13;;;3.50;;
60472;SDS011;46318;52.716;6.444;2023-09-19T09:33:54;9.13;;;3.17;;
60472;SDS011;46318;52.716;6.444;2023-09-19T09:36:35;12.75;;;3.50;;
60472;SDS011;46318;52.716;6.444;2023-09-19T09:39:07;12.15;;;3.28;;
60472;SDS011;46318;52.716;6.444;2023-09-19T09:41:49;10.43;;;3.78;;
60472;SDS011;46318;52.716;6.444;2023-09-19T09:44:19;16.80;;;3.10;;
60472;SDS011;46318;52.716;6.444;2023-09-19T09:46:45;11.27;;;3.50;;
60472;SDS011;46318;52.716;6.444;2023-09-19T09:49:38;12.48;;;3.20;;
60472;SDS011;46318;52.716;6.444;2023-09-19T09:52:05;10.38;;;3.20;;
60472;SDS011;46318;52.716;6.444;2023-09-19T09:54:57;9.18;;;3.22;;
60472;SDS011;46318;52.716;6.444;2023-09-19T09:57:35;12.10;;;4.25;;
60472;SDS011;46318;52.716;6.444;2023-09-19T10:00:04;9.40;;;3.08;;
60472;SDS011;46318;52.716;6.444;2023-09-19T10:02:37;10.88;;;3.50;;
60472;SDS011;46318;52.716;6.444;2023-09-19T10:05:19;10.82;;;3.42;;
60472;SDS011;46318;52.716;6.444;2023-09-19T10:07:57;9.95;;;3.50;;
60472;SDS011;46318;52.716;6.444;2023-09-19T10:10:47;16.13;;;4.60;;
60472;SDS011;46318;52.716;6.444;2023-09-19T10:13:20;11.82;;;3.83;;
60472;SDS011;46318;52.716;6.444;2023-09-19T10:15:49;8.98;;;3.42;;
60472;SDS011;46318;52.716;6.444;2023-09-19T10:18:21;9.82;;;2.97;;
60472;SDS011;46318;52.716;6.444;2023-09-19T10:20:58;11.65;;;3.60;;
60472;SDS011;46318;52.716;6.444;2023-09-19T10:23:33;17.20;;;4.38;;
60472;SDS011;46318;52.716;6.444;2023-09-19T10:26:02;9.73;;;3.45;;
60472;SDS011;46318;52.716;6.444;2023-09-19T10:28:34;9.60;;;3.38;;
60472;SDS011;46318;52.716;6.444;2023-09-19T10:31:01;8.45;;;3.15;;
60472;SDS011;46318;52.716;6.444;2023-09-19T10:33:28;8.95;;;3.05;;
60472;SDS011;46318;52.716;6.444;2023-09-19T10:36:02;11.80;;;3.50;;
60472;SDS011;46318;52.716;6.444;2023-09-19T10:43:35;10.52;;;3.08;;
60472;SDS011;46318;52.716;6.444;2023-09-19T10:46:08;7.45;;;2.58;;
60472;SDS011;46318;52.716;6.444;2023-09-19T10:48:40;10.65;;;3.17;;
60472;SDS011;46318;52.716;6.444;2023-09-19T10:51:10;11.05;;;3.60;;
60472;SDS011;46318;52.716;6.444;2023-09-19T10:53:50;8.88;;;3.00;;
60472;SDS011;46318;52.716;6.444;2023-09-19T10:56:30;11.52;;;3.30;;
60472;SDS011;46318;52.716;6.444;2023-09-19T10:59:10;8.52;;;3.10;;
60472;SDS011;46318;52.716;6.444;2023-09-19T11:01:42;9.95;;;3.22;;
60472;SDS011;46318;52.716;6.444;2023-09-19T11:07:13;9.27;;;3.27;;
60472;SDS011;46318;52.716;6.444;2023-09-19T11:09:44;9.88;;;3.25;;
60472;SDS011;46318;52.716;6.444;2023-09-19T11:15:02;10.65;;;2.90;;
60472;SDS011;46318;52.716;6.444;2023-09-19T11:30:42;10.43;;;3.45;;
60472;SDS011;46318;52.716;6.444;2023-09-19T11:33:30;9.52;;;2.80;;
60472;SDS011;46318;52.716;6.444;2023-09-19T11:36:09;8.38;;;2.67;;
60472;SDS011;46318;52.716;6.444;2023-09-19T11:50:11;10.85;;;3.55;;
60472;SDS011;46318;52.716;6.444;2023-09-19T11:52:36;11.48;;;3.38;;
60472;SDS011;46318;52.716;6.444;2023-09-19T11:55:05;8.93;;;3.22;;
60472;SDS011;46318;52.716;6.444;2023-09-19T11:57:34;8.90;;;3.17;;
60472;SDS011;46318;52.716;6.444;2023-09-19T12:00:01;11.10;;;3.28;;
60472;SDS011;46318;52.716;6.444;2023-09-19T12:02:48;8.60;;;3.10;;
60472;SDS011;46318;52.716;6.444;2023-09-19T12:05:29;8.73;;;2.47;;
60472;SDS011;46318;52.716;6.444;2023-09-19T12:07:58;14.95;;;3.70;;
60472;SDS011;46318;52.716;6.444;2023-09-19T12:10:24;7.90;;;2.90;;
60472;SDS011;46318;52.716;6.444;2023-09-19T12:12:51;8.77;;;2.70;;
60472;SDS011;46318;52.716;6.444;2023-09-19T12:15:22;8.20;;;2.75;;
60472;SDS011;46318;52.716;6.444;2023-09-19T12:17:56;11.82;;;3.17;;
60472;SDS011;46318;52.716;6.444;2023-09-19T12:20:22;8.95;;;2.70;;
60472;SDS011;46318;52.716;6.444;2023-09-19T12:22:57;8.15;;;2.80;;
60472;SDS011;46318;52.716;6.444;2023-09-19T12:25:25;8.15;;;2.65;;
60472;SDS011;46318;52.716;6.444;2023-09-19T12:27:52;6.55;;;3.05;;
60472;SDS011;46318;52.716;6.444;2023-09-19T12:30:21;7.07;;;2.42;;
60472;SDS011;46318;52.716;6.444;2023-09-19T12:32:53;7.57;;;2.35;;
60472;SDS011;46318;52.716;6.444;2023-09-19T12:35:27;7.97;;;2.92;;
60472;SDS011;46318;52.716;6.444;2023-09-19T12:37:55;8.38;;;2.80;;
60472;SDS011;46318;52.716;6.444;2023-09-19T12:40:22;9.57;;;2.83;;
60472;SDS011;46318;52.716;6.444;2023-09-19T12:42:53;8.85;;;2.63;;
60472;SDS011;46318;52.716;6.444;2023-09-19T12:45:30;9.70;;;2.70;;
60472;SDS011;46318;52.716;6.444;2023-09-19T12:54:01;6.15;;;2.33;;
60472;SDS011;46318;52.716;6.444;2023-09-19T12:56:27;8.65;;;2.58;;
60472;SDS011;46318;52.716;6.444;2023-09-19T12:58:55;7.95;;;2.45;;
60472;SDS011;46318;52.716;6.444;2023-09-19T13:01:28;5.82;;;2.20;;
60472;SDS011;46318;52.716;6.444;2023-09-19T13:04:13;7.10;;;2.60;;
60472;SDS011;46318;52.716;6.444;2023-09-19T13:06:44;5.45;;;2.50;;
60472;SDS011;46318;52.716;6.444;2023-09-19T13:09:13;7.85;;;2.65;;
60472;SDS011;46318;52.716;6.444;2023-09-19T13:11:41;7.90;;;2.60;;
60472;SDS011;46318;52.716;6.444;2023-09-19T13:14:17;7.25;;;2.90;;
60472;SDS011;46318;52.716;6.444;2023-09-19T13:17:11;5.65;;;2.00;;
60472;SDS011;46318;52.716;6.444;2023-09-19T13:19:50;7.10;;;2.30;;
60472;SDS011;46318;52.716;6.444;2023-09-19T13:30:16;7.78;;;2.25;;
60472;SDS011;46318;52.716;6.444;2023-09-19T13:32:43;8.63;;;2.90;;
60472;SDS011;46318;52.716;6.444;2023-09-19T13:35:12;5.93;;;1.92;;
60472;SDS011;46318;52.716;6.444;2023-09-19T13:37:40;6.03;;;2.22;;
60472;SDS011;46318;52.716;6.444;2023-09-19T13:42:36;7.30;;;2.28;;
60472;SDS011;46318;52.716;6.444;2023-09-19T13:45:05;6.32;;;2.10;;
60472;SDS011;46318;52.716;6.444;2023-09-19T13:47:39;5.32;;;2.00;;
60472;SDS011;46318;52.716;6.444;2023-09-19T13:50:08;8.02;;;1.90;;
60472;SDS011;46318;52.716;6.444;2023-09-19T13:52:39;5.57;;;1.40;;
60472;SDS011;46318;52.716;6.444;2023-09-19T13:55:08;8.63;;;2.10;;
60472;SDS011;46318;52.716;6.444;2023-09-19T13:57:34;5.20;;;2.10;;
60472;SDS011;46318;52.716;6.444;2023-09-19T14:00:00;5.50;;;2.05;;
60472;SDS011;46318;52.716;6.444;2023-09-19T14:02:26;4.13;;;2.10;;
60472;SDS011;46318;52.716;6.444;2023-09-19T14:04:52;6.30;;;1.90;;
60472;SDS011;46318;52.716;6.444;2023-09-19T14:07:18;7.55;;;2.30;;
60472;SDS011;46318;52.716;6.444;2023-09-19T14:09:46;6.18;;;1.73;;
60472;SDS011;46318;52.716;6.444;2023-09-19T14:12:15;7.22;;;1.63;;
60472;SDS011;46318;52.716;6.444;2023-09-19T14:14:42;5.07;;;1.77;;
60472;SDS011;46318;52.716;6.444;2023-09-19T14:17:10;6.32;;;1.65;;
60472;SDS011;46318;52.716;6.444;2023-09-19T14:19:42;3.78;;;1.30;;
60472;SDS011;46318;52.716;6.444;2023-09-19T14:22:11;3.42;;;1.60;;
60472;SDS011;46318;52.716;6.444;2023-09-19T14:24:40;3.90;;;1.73;;
60472;SDS011;46318;52.716;6.444;2023-09-19T14:27:09;7.68;;;1.98;;
60472;SDS011;46318;52.716;6.444;2023-09-19T14:29:40;6.88;;;1.60;;
60472;SDS011;46318;52.716;6.444;2023-09-19T14:32:13;4.45;;;1.77;;
60472;SDS011;46318;52.716;6.444;2023-09-19T14:34:39;6.45;;;1.70;;
60472;SDS011;46318;52.716;6.444;2023-09-19T14:37:08;3.67;;;1.33;;
60472;SDS011;46318;52.716;6.444;2023-09-19T14:39:36;5.57;;;1.60;;
60472;SDS011;46318;52.716;6.444;2023-09-19T14:42:05;6.65;;;1.67;;
60472;SDS011;46318;52.716;6.444;2023-09-19T14:45:18;5.30;;;1.55;;
60472;SDS011;46318;52.716;6.444;2023-09-19T14:47:46;6.75;;;1.70;;
60472;SDS011;46318;52.716;6.444;2023-09-19T14:50:12;3.53;;;1.65;;
60472;SDS011;46318;52.716;6.444;2023-09-19T14:52:43;3.40;;;1.30;;
60472;SDS011;46318;52.716;6.444;2023-09-19T14:55:10;4.43;;;1.70;;
60472;SDS011;46318;52.716;6.444;2023-09-19T14:57:39;4.97;;;1.73;;
60472;SDS011;46318;52.716;6.444;2023-09-19T15:00:11;4.32;;;1.42;;
60472;SDS011;46318;52.716;6.444;2023-09-19T15:02:41;5.27;;;1.60;;
60472;SDS011;46318;52.716;6.444;2023-09-19T15:05:10;7.88;;;1.75;;
60472;SDS011;46318;52.716;6.444;2023-09-19T15:07:37;5.15;;;1.77;;
60472;SDS011;46318;52.716;6.444;2023-09-19T15:10:06;3.90;;;1.42;;
60472;SDS011;46318;52.716;6.444;2023-09-19T15:12:40;4.82;;;1.73;;
60472;SDS011;46318;52.716;6.444;2023-09-19T15:15:08;5.35;;;1.67;;
60472;SDS011;46318;52.716;6.444;2023-09-19T15:17:41;5.53;;;1.95;;
60472;SDS011;46318;52.716;6.444;2023-09-19T15:20:09;4.68;;;1.52;;
60472;SDS011;46318;52.716;6.444;2023-09-19T15:22:39;5.25;;;1.60;;
60472;SDS011;46318;52.716;6.444;2023-09-19T15:25:19;4.00;;;1.50;;
60472;SDS011;46318;52.716;6.444;2023-09-19T15:27:48;3.80;;;1.60;;
60472;SDS011;46318;52.716;6.444;2023-09-19T15:30:19;5.05;;;1.80;;
60472;SDS011;46318;52.716;6.444;2023-09-19T15:32:49;3.53;;;1.85;;
60472;SDS011;46318;52.716;6.444;2023-09-19T15:35:22;6.70;;;1.90;;
60472;SDS011;46318;52.716;6.444;2023-09-19T15:37:54;4.68;;;1.70;;
60472;SDS011;46318;52.716;6.444;2023-09-19T15:40:23;4.78;;;1.65;;
60472;SDS011;46318;52.716;6.444;2023-09-19T15:43:01;5.45;;;1.80;;
60472;SDS011;46318;52.716;6.444;2023-09-19T15:45:30;5.05;;;1.70;;
60472;SDS011;46318;52.716;6.444;2023-09-19T15:47:56;3.05;;;1.67;;
60472;SDS011;46318;52.716;6.444;2023-09-19T15:50:23;3.05;;;1.45;;
60472;SDS011;46318;52.716;6.444;2023-09-19T15:52:53;6.68;;;1.80;;
60472;SDS011;46318;52.716;6.444;2023-09-19T15:55:20;5.05;;;1.80;;
60472;SDS011;46318;52.716;6.444;2023-09-19T15:57:46;6.00;;;2.05;;
60472;SDS011;46318;52.716;6.444;2023-09-19T16:00:12;3.88;;;1.70;;
60472;SDS011;46318;52.716;6.444;2023-09-19T16:02:42;3.63;;;1.67;;
60472;SDS011;46318;52.716;6.444;2023-09-19T16:05:10;7.15;;;1.50;;
60472;SDS011;46318;52.716;6.444;2023-09-19T16:07:40;4.22;;;1.88;;
60472;SDS011;46318;52.716;6.444;2023-09-19T16:10:06;5.63;;;1.92;;
60472;SDS011;46318;52.716;6.444;2023-09-19T16:12:33;5.50;;;1.77;;
60472;SDS011;46318;52.716;6.444;2023-09-19T16:14:59;4.65;;;1.60;;
60472;SDS011;46318;52.716;6.444;2023-09-19T16:17:25;5.50;;;2.00;;